createdAt,value
2023-05-25T00:01:36.009Z,5.00
2023-05-25T00:04:04.747Z,5.40
2023-05-25T00:06:37.329Z,5.30
2023-05-25T00:09:05.525Z,5.27
2023-05-25T00:11:33.685Z,5.77
2023-05-25T00:14:01.833Z,5.90
2023-05-25T00:16:30.297Z,5.60
2023-05-25T00:18:58.442Z,5.50
2023-05-25T00:21:27.465Z,6.50
2023-05-25T00:23:56.938Z,5.00
2023-05-25T00:26:25.833Z,5.37
2023-05-25T00:28:54.086Z,5.80
2023-05-25T00:31:22.259Z,5.73
2023-05-25T00:33:51.183Z,5.50
2023-05-25T00:36:19.315Z,5.97
2023-05-25T00:38:47.512Z,5.50
2023-05-25T00:41:18.586Z,5.87
2023-05-25T00:43:47.301Z,4.80
2023-05-25T00:46:16.866Z,6.60
2023-05-25T00:48:45.218Z,5.57
2023-05-25T00:51:15.202Z,5.50
2023-05-25T00:53:43.472Z,5.83
2023-05-25T00:56:21.398Z,7.50
2023-05-25T00:58:54.417Z,6.33
2023-05-25T01:01:24.186Z,6.07
2023-05-25T01:03:54.667Z,6.10
2023-05-25T01:06:24.541Z,6.13
2023-05-25T01:08:56.744Z,6.30
2023-05-25T01:11:29.088Z,6.30
2023-05-25T01:13:59.098Z,5.87
2023-05-25T01:16:27.491Z,6.07
2023-05-25T01:18:55.748Z,5.67
2023-05-25T01:21:30.420Z,6.83
2023-05-25T01:24:08.314Z,6.27
2023-05-25T01:26:43.566Z,5.60
2023-05-25T01:29:12.795Z,6.33
2023-05-25T01:31:41.853Z,6.20
2023-05-25T01:34:12.196Z,6.43
2023-05-25T01:36:42.083Z,5.80
2023-05-25T01:39:12.677Z,7.03
2023-05-25T01:41:41.093Z,6.60
2023-05-25T01:44:09.569Z,6.43
2023-05-25T01:46:39.782Z,6.40
2023-05-25T01:49:21.865Z,6.60
2023-05-25T01:52:01.643Z,6.30
2023-05-25T01:54:36.653Z,7.30
2023-05-25T01:57:07.920Z,6.27
2023-05-25T01:59:38.988Z,6.40
2023-05-25T02:02:07.997Z,6.80
2023-05-25T02:04:36.998Z,6.47
2023-05-25T02:07:07.128Z,7.03
2023-05-25T02:09:35.314Z,7.13
2023-05-25T02:12:03.574Z,6.77
2023-05-25T02:14:31.798Z,8.13
2023-05-25T02:17:02.022Z,6.30
2023-05-25T02:19:30.435Z,6.00
2023-05-25T02:21:58.694Z,6.40
2023-05-25T02:24:28.400Z,6.90
2023-05-25T02:26:56.595Z,7.07
2023-05-25T02:29:24.782Z,7.77
2023-05-25T02:31:52.938Z,7.17
2023-05-25T02:34:21.869Z,8.10
2023-05-25T02:36:49.994Z,6.70
2023-05-25T02:39:18.178Z,6.80
2023-05-25T02:41:47.656Z,6.50
2023-05-25T02:44:15.880Z,7.30
2023-05-25T02:46:44.035Z,7.77
2023-05-25T02:49:12.503Z,6.60
2023-05-25T02:51:40.672Z,7.67
2023-05-25T02:54:08.836Z,7.30
2023-05-25T02:56:37.106Z,6.33
2023-05-25T02:59:07.666Z,6.30
2023-05-25T03:01:36.733Z,7.07
2023-05-25T03:04:05.157Z,7.40
2023-05-25T03:06:33.319Z,6.80
2023-05-25T03:09:01.490Z,6.70
2023-05-25T03:11:30.052Z,8.37
2023-05-25T03:13:58.246Z,6.07
2023-05-25T03:16:27.839Z,6.40
2023-05-25T03:18:56.117Z,7.03
2023-05-25T03:21:24.289Z,6.93
2023-05-25T03:23:52.440Z,7.77
2023-05-25T03:26:20.642Z,7.63
2023-05-25T03:28:48.811Z,7.30
2023-05-25T03:31:16.979Z,7.27
2023-05-25T03:33:46.567Z,6.93
2023-05-25T03:36:17.344Z,6.10
2023-05-25T03:38:45.989Z,6.70
2023-05-25T03:41:14.197Z,6.70
2023-05-25T03:43:42.344Z,7.03
2023-05-25T03:46:11.547Z,5.73
2023-05-25T03:48:39.784Z,6.57
2023-05-25T03:51:09.301Z,6.17
2023-05-25T03:53:37.520Z,5.97
2023-05-25T03:56:06.107Z,7.00
2023-05-25T03:58:34.242Z,6.47
2023-05-25T04:01:04.977Z,6.43
2023-05-25T04:03:33.831Z,6.40
2023-05-25T04:06:02.386Z,6.43
2023-05-25T04:08:32.162Z,6.73
2023-05-25T04:11:00.367Z,6.73
2023-05-25T04:13:28.564Z,6.57
2023-05-25T04:15:57.070Z,7.50
2023-05-25T04:18:25.272Z,7.30
2023-05-25T04:20:55.404Z,6.83
2023-05-25T04:23:23.623Z,7.43
2023-05-25T04:25:53.683Z,7.30
2023-05-25T04:28:22.634Z,7.93
2023-05-25T04:30:51.296Z,8.00
2023-05-25T04:33:19.475Z,8.40
2023-05-25T04:35:48.982Z,8.20
2023-05-25T04:38:18.297Z,7.10
2023-05-25T04:40:47.350Z,8.53
2023-05-25T04:43:18.249Z,9.10
2023-05-25T04:45:47.334Z,8.50
2023-05-25T04:48:15.657Z,7.90
2023-05-25T04:50:43.990Z,7.40
2023-05-25T04:53:12.148Z,7.30
2023-05-25T04:55:40.909Z,8.30
2023-05-25T04:58:09.045Z,8.30
2023-05-25T05:00:40.143Z,8.90
2023-05-25T05:03:08.462Z,8.10
2023-05-25T05:05:37.103Z,8.23
2023-05-25T05:08:05.690Z,8.50
2023-05-25T05:10:33.899Z,9.20
2023-05-25T05:13:02.080Z,8.30
2023-05-25T05:15:30.264Z,8.03
2023-05-25T05:18:00.632Z,8.70
2023-05-25T05:20:28.995Z,9.27
2023-05-25T05:22:57.268Z,9.20
2023-05-25T05:25:25.436Z,9.17
2023-05-25T05:27:53.748Z,7.53
2023-05-25T05:30:22.228Z,9.37
2023-05-25T05:32:50.416Z,8.00
2023-05-25T05:35:19.919Z,7.60
2023-05-25T05:37:48.328Z,9.70
2023-05-25T05:40:16.582Z,8.10
2023-05-25T05:42:44.787Z,8.77
2023-05-25T05:45:13.712Z,8.60
2023-05-25T05:47:41.948Z,7.80
2023-05-25T05:50:10.878Z,8.30
2023-05-25T05:52:40.393Z,8.07
2023-05-25T05:55:09.256Z,8.83
2023-05-25T05:57:37.420Z,7.90
2023-05-25T06:00:07.006Z,8.87
2023-05-25T06:02:35.487Z,9.23
2023-05-25T06:05:03.740Z,8.43
2023-05-25T06:07:34.914Z,9.47
2023-05-25T06:10:04.834Z,8.30
2023-05-25T06:12:33.003Z,8.87
2023-05-25T06:15:01.201Z,8.90
2023-05-25T06:17:29.582Z,9.90
2023-05-25T06:19:57.929Z,10.07
2023-05-25T06:22:27.986Z,9.07
2023-05-25T06:24:56.176Z,10.20
2023-05-25T06:27:25.704Z,8.97
2023-05-25T06:29:53.846Z,10.37
2023-05-25T06:32:22.083Z,11.47
2023-05-25T06:34:50.285Z,8.80
2023-05-25T06:37:18.553Z,9.40
2023-05-25T06:39:46.707Z,8.53
2023-05-25T06:42:14.872Z,9.60
2023-05-25T06:44:44.462Z,9.77
2023-05-25T06:47:12.642Z,7.50
2023-05-25T06:49:40.780Z,9.70
2023-05-25T06:52:09.048Z,8.20
2023-05-25T06:54:37.260Z,8.10
2023-05-25T06:57:06.730Z,8.80
2023-05-25T06:59:34.944Z,8.73
2023-05-25T07:02:04.487Z,10.20
2023-05-25T07:04:33.119Z,9.00
2023-05-25T07:07:01.618Z,8.60
2023-05-25T07:09:29.797Z,10.07
2023-05-25T07:11:57.972Z,8.63
2023-05-25T07:14:26.499Z,9.00
2023-05-25T07:16:54.643Z,10.20
2023-05-25T07:19:24.179Z,9.03
2023-05-25T07:21:52.453Z,8.33
2023-05-25T07:24:20.679Z,8.63
2023-05-25T07:26:49.689Z,8.77
2023-05-25T07:29:17.918Z,9.93
2023-05-25T07:31:46.599Z,8.23
2023-05-25T07:34:15.157Z,9.03
2023-05-25T07:36:47.638Z,9.60
2023-05-25T07:39:16.276Z,9.60
2023-05-25T07:41:44.522Z,9.53
2023-05-25T07:44:12.683Z,8.73
2023-05-25T07:46:41.008Z,8.37
2023-05-25T07:49:13.174Z,7.87
2023-05-25T07:51:41.380Z,8.60
2023-05-25T07:54:10.963Z,8.70
2023-05-25T07:56:39.655Z,7.77
2023-05-25T07:59:07.935Z,7.70
2023-05-25T08:01:36.104Z,7.90
2023-05-25T08:04:04.551Z,7.77
2023-05-25T08:06:34.417Z,7.10
2023-05-25T08:09:04.733Z,7.80
2023-05-25T08:11:34.261Z,8.00
2023-05-25T08:14:02.465Z,7.30
2023-05-25T08:16:30.680Z,7.40
2023-05-25T08:19:01.489Z,7.60
2023-05-25T08:21:29.781Z,7.57
2023-05-25T08:23:57.919Z,7.50
2023-05-25T08:26:38.307Z,8.23
2023-05-25T08:29:15.930Z,6.30
2023-05-25T08:31:47.340Z,6.90
2023-05-25T08:34:15.595Z,8.40
2023-05-25T08:36:44.726Z,7.57
2023-05-25T08:39:13.318Z,8.27
2023-05-25T08:41:44.522Z,7.00
2023-05-25T08:44:14.642Z,7.57
2023-05-25T08:46:46.827Z,8.27
2023-05-25T08:49:15.862Z,6.73
2023-05-25T08:51:49.531Z,8.57
2023-05-25T08:54:20.167Z,9.80
2023-05-25T08:56:52.126Z,8.50
2023-05-25T08:59:29.975Z,8.90
2023-05-25T09:02:08.176Z,8.20
2023-05-25T09:04:36.720Z,8.20
2023-05-25T09:07:10.131Z,9.10
2023-05-25T09:09:40.564Z,7.10
2023-05-25T09:12:10.118Z,7.17
2023-05-25T09:14:45.309Z,7.63
2023-05-25T09:17:15.772Z,7.57
2023-05-25T09:19:44.375Z,7.50
2023-05-25T09:22:16.372Z,7.13
2023-05-25T09:24:45.874Z,6.97
2023-05-25T09:27:17.356Z,6.20
2023-05-25T09:29:46.418Z,6.60
2023-05-25T09:32:16.479Z,6.90
2023-05-25T09:34:45.018Z,6.03
2023-05-25T09:37:14.502Z,5.57
2023-05-25T09:39:43.454Z,5.70
2023-05-25T09:42:12.192Z,6.23
2023-05-25T09:44:42.559Z,5.50
2023-05-25T09:47:10.885Z,5.60
2023-05-25T09:49:40.409Z,6.80
2023-05-25T09:52:08.744Z,6.60
2023-05-25T09:54:38.161Z,6.50
2023-05-25T09:57:10.257Z,6.13
2023-05-25T09:59:38.693Z,8.20
2023-05-25T10:02:07.952Z,6.43
2023-05-25T10:04:36.183Z,6.73
2023-05-25T10:07:06.931Z,7.33
2023-05-25T10:09:41.762Z,6.73
2023-05-25T10:12:10.257Z,6.60
2023-05-25T10:14:39.438Z,7.40
2023-05-25T10:17:11.177Z,6.07
2023-05-25T10:19:43.264Z,6.10
2023-05-25T10:22:17.608Z,5.80
2023-05-25T10:24:52.900Z,6.10
2023-05-25T10:27:27.597Z,5.90
2023-05-25T10:29:57.932Z,5.40
2023-05-25T10:32:27.046Z,5.57
2023-05-25T10:34:56.500Z,6.37
2023-05-25T10:37:28.348Z,7.50
2023-05-25T10:39:59.113Z,7.67
2023-05-25T10:42:29.577Z,6.77
2023-05-25T10:44:58.990Z,6.23
2023-05-25T10:47:28.401Z,7.90
2023-05-25T10:49:58.172Z,6.60
2023-05-25T10:52:30.816Z,6.77
2023-05-25T10:55:01.662Z,7.13
2023-05-25T10:57:29.955Z,6.60
2023-05-25T11:00:06.782Z,6.97
2023-05-25T11:02:51.429Z,6.90
2023-05-25T11:05:34.161Z,8.10
2023-05-25T11:08:06.483Z,6.80
2023-05-25T11:10:56.371Z,7.17
2023-05-25T11:13:40.807Z,8.73
2023-05-25T11:16:35.976Z,7.60
2023-05-25T11:19:04.708Z,7.90
2023-05-25T11:21:43.812Z,7.97
2023-05-25T11:24:18.355Z,6.90
2023-05-25T11:26:58.036Z,7.50
2023-05-25T11:29:27.431Z,8.80
2023-05-25T11:31:57.156Z,7.63
2023-05-25T11:34:26.448Z,7.50
2023-05-25T11:36:57.982Z,7.83
2023-05-25T11:39:27.512Z,8.20
2023-05-25T11:41:57.580Z,8.67
2023-05-25T11:44:31.275Z,7.43
2023-05-25T11:47:05.831Z,8.07
2023-05-25T11:49:34.103Z,8.17
2023-05-25T11:52:07.420Z,8.03
2023-05-25T11:54:37.452Z,6.43
2023-05-25T11:57:06.412Z,6.67
2023-05-25T11:59:34.689Z,6.80
2023-05-25T12:02:04.169Z,6.60
2023-05-25T12:04:35.547Z,7.90
2023-05-25T12:07:04.612Z,7.53
2023-05-25T12:09:33.522Z,5.97
2023-05-25T12:12:04.993Z,6.50
2023-05-25T12:14:36.043Z,6.57
2023-05-25T12:17:04.898Z,5.43
2023-05-25T12:19:33.454Z,6.07
2023-05-25T12:22:01.905Z,7.90
2023-05-25T12:24:30.715Z,8.23
2023-05-25T12:27:01.839Z,7.70
2023-05-25T12:29:31.721Z,8.20
2023-05-25T12:32:04.521Z,8.60
2023-05-25T12:34:32.791Z,8.70
2023-05-25T12:37:01.511Z,7.80
2023-05-25T12:39:39.462Z,6.70
2023-05-25T12:42:15.856Z,7.33
2023-05-25T12:44:47.259Z,8.13
2023-05-25T12:47:17.195Z,7.97
2023-05-25T12:49:46.660Z,8.47
2023-05-25T12:52:33.341Z,8.63
2023-05-25T12:55:20.378Z,7.10
2023-05-25T12:57:52.380Z,9.40
2023-05-25T13:00:23.736Z,8.40
2023-05-25T13:02:52.365Z,8.80
2023-05-25T13:05:22.587Z,8.60
2023-05-25T13:07:51.133Z,9.57
2023-05-25T13:10:19.944Z,10.30
2023-05-25T13:12:49.066Z,10.90
2023-05-25T13:15:20.929Z,9.27
2023-05-25T13:17:52.013Z,9.40
2023-05-25T13:20:22.195Z,8.73
2023-05-25T13:22:52.196Z,8.40
2023-05-25T13:25:21.944Z,7.10
2023-05-25T13:27:51.928Z,7.60
2023-05-25T13:30:22.054Z,7.17
2023-05-25T13:32:52.402Z,7.10
2023-05-25T13:35:34.017Z,7.10
2023-05-25T13:38:02.231Z,7.03
2023-05-25T13:40:30.381Z,6.37
2023-05-25T13:42:58.597Z,6.40
2023-05-25T13:45:26.788Z,6.17
2023-05-25T13:47:56.435Z,5.70
2023-05-25T13:50:25.278Z,5.20
2023-05-25T13:52:54.282Z,4.57
2023-05-25T13:55:22.883Z,4.70
2023-05-25T13:57:51.785Z,4.53
2023-05-25T14:00:20.580Z,4.23
2023-05-25T14:02:48.869Z,4.50
2023-05-25T14:05:19.757Z,4.57
2023-05-25T14:07:47.986Z,4.60
2023-05-25T14:10:16.541Z,4.33
2023-05-25T14:12:45.586Z,4.40
2023-05-25T14:15:14.412Z,4.40
2023-05-25T14:17:42.643Z,4.80
2023-05-25T14:20:15.740Z,4.67
2023-05-25T14:22:45.315Z,4.77
2023-05-25T14:25:13.507Z,5.57
2023-05-25T14:27:41.723Z,4.67
2023-05-25T14:30:10.803Z,4.43
2023-05-25T14:32:39.275Z,4.83
2023-05-25T14:35:08.308Z,4.97
2023-05-25T14:37:36.475Z,5.40
2023-05-25T14:40:06.873Z,4.60
2023-05-25T14:42:35.029Z,3.93
2023-05-25T14:45:03.187Z,5.70
2023-05-25T14:47:31.473Z,5.40
2023-05-25T14:49:59.742Z,5.33
2023-05-25T14:52:28.022Z,4.97
2023-05-25T14:54:56.217Z,5.20
2023-05-25T14:57:25.689Z,5.10
2023-05-25T14:59:53.948Z,5.10
2023-05-25T15:02:22.211Z,5.03
2023-05-25T15:04:50.541Z,4.57
2023-05-25T15:07:18.663Z,5.33
2023-05-25T15:09:46.850Z,5.30
2023-05-25T15:12:15.123Z,5.13
2023-05-25T15:14:44.620Z,5.63
2023-05-25T15:17:13.025Z,5.23
2023-05-25T15:19:41.216Z,6.47
2023-05-25T15:22:09.392Z,6.10
2023-05-25T15:24:37.839Z,5.93
2023-05-25T15:27:06.616Z,5.17
2023-05-25T15:29:34.794Z,5.20
2023-05-25T15:32:04.552Z,5.57
2023-05-25T15:34:32.789Z,5.57
2023-05-25T15:37:01.168Z,5.00
2023-05-25T15:39:29.302Z,4.50
2023-05-25T15:41:57.444Z,5.70
2023-05-25T15:44:25.690Z,5.10
2023-05-25T15:46:53.998Z,5.17
2023-05-25T15:49:23.537Z,5.10
2023-05-25T15:51:53.397Z,4.80
2023-05-25T15:54:21.589Z,4.47
2023-05-25T15:56:49.741Z,4.13
2023-05-25T15:59:18.159Z,5.30
2023-05-25T16:01:46.441Z,4.20
2023-05-25T16:04:14.808Z,4.40
2023-05-25T16:06:44.399Z,4.50
2023-05-25T16:09:12.521Z,4.43
2023-05-25T16:11:40.662Z,4.40
2023-05-25T16:14:08.811Z,3.87
2023-05-25T16:16:37.070Z,5.00
2023-05-25T16:19:05.694Z,4.23
2023-05-25T16:21:37.644Z,4.50
2023-05-25T16:24:08.097Z,5.27
2023-05-25T16:26:36.277Z,21.93
2023-05-25T16:29:04.703Z,4.80
2023-05-25T16:31:34.472Z,4.40
2023-05-25T16:34:03.033Z,5.33
2023-05-25T16:36:31.450Z,5.37
2023-05-25T16:38:59.650Z,4.37
2023-05-25T16:41:29.520Z,5.63
2023-05-25T16:43:58.153Z,5.20
2023-05-25T16:46:26.402Z,5.37
2023-05-25T16:48:54.551Z,4.83
2023-05-25T16:51:22.798Z,4.50
2023-05-25T16:53:53.721Z,5.60
2023-05-25T16:56:24.459Z,4.67
2023-05-25T16:58:54.009Z,4.40
2023-05-25T17:01:22.238Z,6.70
2023-05-25T17:03:50.751Z,5.63
2023-05-25T17:06:19.043Z,5.83
2023-05-25T17:08:47.227Z,6.07
2023-05-25T17:11:15.497Z,4.50
2023-05-25T17:13:43.633Z,4.90
2023-05-25T17:16:13.361Z,5.30
2023-05-25T17:18:42.346Z,3.77
2023-05-25T17:21:10.581Z,4.50
2023-05-25T17:23:38.735Z,4.60
2023-05-25T17:26:06.941Z,6.80
2023-05-25T17:28:36.029Z,4.90
2023-05-25T17:31:04.387Z,4.47
2023-05-25T17:33:33.971Z,4.00
2023-05-25T17:36:02.124Z,3.80
2023-05-25T17:38:30.281Z,4.90
2023-05-25T17:40:58.486Z,4.90
2023-05-25T17:43:26.883Z,4.20
2023-05-25T17:45:55.173Z,4.03
2023-05-25T17:48:23.435Z,4.17
2023-05-25T17:50:53.102Z,3.60
2023-05-25T17:53:21.596Z,4.10
2023-05-25T17:55:49.867Z,3.70
2023-05-25T17:58:18.299Z,4.43
2023-05-25T18:00:46.513Z,4.20
2023-05-25T18:03:14.838Z,3.20
2023-05-25T18:05:43.372Z,4.23
2023-05-25T18:08:13.163Z,3.97
2023-05-25T18:10:41.328Z,3.50
2023-05-25T18:13:14.378Z,4.73
2023-05-25T18:15:42.761Z,3.70
2023-05-25T18:18:11.111Z,4.80
2023-05-25T18:20:39.490Z,4.40
2023-05-25T18:23:08.291Z,4.03
2023-05-25T18:25:38.210Z,3.80
2023-05-25T18:28:06.430Z,4.17
2023-05-25T18:30:34.739Z,3.87
2023-05-25T18:33:02.968Z,3.30
2023-05-25T18:35:31.521Z,4.33
2023-05-25T18:37:59.849Z,4.80
2023-05-25T18:40:28.316Z,3.90
2023-05-25T18:42:58.017Z,3.50
2023-05-25T18:45:26.364Z,3.70
2023-05-25T18:47:54.597Z,4.47
2023-05-25T18:50:22.910Z,3.60
2023-05-25T18:52:52.709Z,3.77
2023-05-25T18:55:20.934Z,4.40
2023-05-25T18:57:50.215Z,3.70
2023-05-25T19:00:20.397Z,4.57
2023-05-25T19:02:49.098Z,3.60
2023-05-25T19:05:18.502Z,4.13
2023-05-25T19:10:18.429Z,3.53
2023-05-25T19:12:46.686Z,4.13
2023-05-25T19:15:15.474Z,3.97
2023-05-25T19:17:46.568Z,3.60
2023-05-25T19:20:15.374Z,3.30
2023-05-25T19:22:43.694Z,3.63
2023-05-25T19:25:11.888Z,4.17
2023-05-25T19:27:40.106Z,3.30
2023-05-25T19:30:09.138Z,3.73
2023-05-25T19:32:37.417Z,3.70
2023-05-25T19:35:07.498Z,2.70
2023-05-25T19:37:37.568Z,3.87
2023-05-25T19:40:08.835Z,3.80
2023-05-25T19:42:37.000Z,4.00
2023-05-25T19:45:05.750Z,4.07
2023-05-25T19:47:34.016Z,3.80
2023-05-25T19:50:03.227Z,5.07
2023-05-25T19:52:32.966Z,3.83
2023-05-25T19:55:01.155Z,3.60
2023-05-25T19:57:29.370Z,4.03
2023-05-25T19:59:57.843Z,3.70
2023-05-25T20:02:26.306Z,3.90
2023-05-25T20:04:54.834Z,3.40
2023-05-25T20:07:23.817Z,3.47
2023-05-25T20:09:53.379Z,3.33
2023-05-25T20:12:21.820Z,3.70
2023-05-25T20:14:50.112Z,4.10
2023-05-25T20:17:18.311Z,5.03
2023-05-25T20:19:46.524Z,4.30
2023-05-25T20:22:14.689Z,4.20
2023-05-25T20:24:42.855Z,4.10
2023-05-25T20:27:12.354Z,4.40
2023-05-25T20:29:40.485Z,4.27
2023-05-25T20:32:09.042Z,3.73
2023-05-25T20:34:37.379Z,4.33
2023-05-25T20:37:05.735Z,3.73
2023-05-25T20:39:35.796Z,3.40
2023-05-25T20:42:04.009Z,3.50
2023-05-25T20:44:33.588Z,4.40
2023-05-25T20:47:01.758Z,3.60
2023-05-25T20:49:29.938Z,4.30
2023-05-25T20:51:58.261Z,3.93
2023-05-25T20:54:26.454Z,3.93
2023-05-25T20:56:54.618Z,3.97
2023-05-25T20:59:23.552Z,3.70
2023-05-25T21:01:53.102Z,4.23
2023-05-25T21:04:21.599Z,3.67
2023-05-25T21:06:49.854Z,4.23
2023-05-25T21:09:18.252Z,4.37
2023-05-25T21:11:46.419Z,3.90
2023-05-25T21:14:14.728Z,4.57
2023-05-25T21:16:43.112Z,4.90
2023-05-25T21:19:12.643Z,4.60
2023-05-25T21:21:40.793Z,4.20
2023-05-25T21:24:08.979Z,4.13
2023-05-25T21:26:37.322Z,4.30
2023-05-25T21:29:05.569Z,4.37
2023-05-25T21:31:33.967Z,4.43
2023-05-25T21:34:02.304Z,4.30
2023-05-25T21:36:32.546Z,3.97
2023-05-25T21:39:00.708Z,3.07
2023-05-25T21:41:29.547Z,4.17
2023-05-25T21:43:57.926Z,3.80
2023-05-25T21:46:26.203Z,4.07
2023-05-25T21:48:54.466Z,3.60
2023-05-25T21:51:22.645Z,4.03
2023-05-25T21:53:52.223Z,3.90
2023-05-25T21:56:20.873Z,4.23
2023-05-25T21:58:49.378Z,3.67
2023-05-25T22:01:17.592Z,4.10
2023-05-25T22:03:45.826Z,4.20
2023-05-25T22:06:14.135Z,3.93
2023-05-25T22:08:42.362Z,4.23
2023-05-25T22:11:11.864Z,4.13
2023-05-25T22:13:40.072Z,3.70
2023-05-25T22:16:08.389Z,4.87
2023-05-25T22:18:38.423Z,4.30
2023-05-25T22:21:06.941Z,4.33
2023-05-25T22:23:35.344Z,5.07
2023-05-25T22:26:04.930Z,4.67
2023-05-25T22:28:34.529Z,4.20
2023-05-25T22:31:02.848Z,4.63
2023-05-25T22:33:31.085Z,4.40
2023-05-25T22:35:59.277Z,3.77
2023-05-25T22:38:27.533Z,5.27
2023-05-25T22:40:55.802Z,5.13
2023-05-25T22:43:24.073Z,4.80
2023-05-25T22:45:54.264Z,4.40
2023-05-25T22:48:23.175Z,4.93
2023-05-25T22:50:51.358Z,5.00
2023-05-25T22:53:19.905Z,5.17
2023-05-25T22:55:49.005Z,4.23
2023-05-25T22:58:17.378Z,5.00
2023-05-25T23:00:45.631Z,4.57
2023-05-25T23:03:15.295Z,4.93
2023-05-25T23:05:44.008Z,4.73
2023-05-25T23:08:12.343Z,4.93
2023-05-25T23:10:40.613Z,5.20
2023-05-25T23:13:09.165Z,4.77
2023-05-25T23:15:40.127Z,5.40
2023-05-25T23:18:08.468Z,5.07
2023-05-25T23:20:38.156Z,5.13
2023-05-25T23:23:06.411Z,5.13
2023-05-25T23:25:34.569Z,5.07
2023-05-25T23:28:02.749Z,6.10
2023-05-25T23:30:31.171Z,4.80
2023-05-25T23:33:00.071Z,4.87
2023-05-25T23:35:28.339Z,5.30
2023-05-25T23:37:58.673Z,5.33
2023-05-25T23:40:26.813Z,5.17
2023-05-25T23:42:54.920Z,5.30
2023-05-25T23:45:23.263Z,5.63
2023-05-25T23:47:51.449Z,6.70
2023-05-25T23:50:19.943Z,5.60
2023-05-25T23:52:48.205Z,6.00
2023-05-25T23:55:17.822Z,6.00
2023-05-25T23:57:46.933Z,10.93
